sensor_id;sensor_type;location;lat;lon;timestamp;P1;P2;P0
65383;PMS5003;51986;52.788;41.368;2023-04-24T00:01:15;46.00;37.00;31.00
65383;PMS5003;51986;52.788;41.368;2023-04-24T00:03:42;48.00;39.00;32.75
65383;PMS5003;51986;52.788;41.368;2023-04-24T00:06:09;48.00;39.00;33.00
65383;PMS5003;51986;52.788;41.368;2023-04-24T00:08:36;48.25;38.75;32.75
65383;PMS5003;51986;52.788;41.368;2023-04-24T00:11:03;50.00;41.00;33.50
65383;PMS5003;51986;52.788;41.368;2023-04-24T00:13:30;49.00;42.00;34.00
65383;PMS5003;51986;52.788;41.368;2023-04-24T00:15:57;46.75;37.00;31.00
65383;PMS5003;51986;52.788;41.368;2023-04-24T00:18:24;46.50;37.50;32.00
65383;PMS5003;51986;52.788;41.368;2023-04-24T00:20:51;47.00;38.50;32.00
65383;PMS5003;51986;52.788;41.368;2023-04-24T00:23:18;44.75;36.00;30.00
65383;PMS5003;51986;52.788;41.368;2023-04-24T00:25:45;45.50;36.50;29.25
65383;PMS5003;51986;52.788;41.368;2023-04-24T00:28:11;46.25;37.00;30.00
65383;PMS5003;51986;52.788;41.368;2023-04-24T00:30:39;46.00;37.00;30.00
65383;PMS5003;51986;52.788;41.368;2023-04-24T00:33:06;46.25;36.50;29.50
65383;PMS5003;51986;52.788;41.368;2023-04-24T00:35:33;48.00;38.00;31.00
65383;PMS5003;51986;52.788;41.368;2023-04-24T00:38:00;47.50;37.50;31.00
65383;PMS5003;51986;52.788;41.368;2023-04-24T00:40:27;46.00;37.00;30.00
65383;PMS5003;51986;52.788;41.368;2023-04-24T00:42:55;45.00;36.50;29.50
65383;PMS5003;51986;52.788;41.368;2023-04-24T00:45:22;46.00;38.00;30.00
65383;PMS5003;51986;52.788;41.368;2023-04-24T00:47:49;46.00;37.50;31.00
65383;PMS5003;51986;52.788;41.368;2023-04-24T00:50:18;48.50;38.75;31.00
65383;PMS5003;51986;52.788;41.368;2023-04-24T00:52:47;49.75;40.00;31.50
65383;PMS5003;51986;52.788;41.368;2023-04-24T00:55:15;50.00;39.00;31.50
65383;PMS5003;51986;52.788;41.368;2023-04-24T00:57:42;48.25;40.00;32.25
65383;PMS5003;51986;52.788;41.368;2023-04-24T01:00:10;48.50;40.25;33.00
65383;PMS5003;51986;52.788;41.368;2023-04-24T01:02:39;49.25;40.00;33.75
65383;PMS5003;51986;52.788;41.368;2023-04-24T01:05:07;48.00;38.00;32.00
65383;PMS5003;51986;52.788;41.368;2023-04-24T01:07:34;51.00;40.00;32.25
65383;PMS5003;51986;52.788;41.368;2023-04-24T01:10:02;47.00;37.00;31.00
65383;PMS5003;51986;52.788;41.368;2023-04-24T01:12:30;49.00;37.75;31.00
65383;PMS5003;51986;52.788;41.368;2023-04-24T01:14:57;50.00;39.50;34.75
65383;PMS5003;51986;52.788;41.368;2023-04-24T01:17:24;48.00;39.00;33.00
65383;PMS5003;51986;52.788;41.368;2023-04-24T01:19:53;49.25;40.00;33.25
65383;PMS5003;51986;52.788;41.368;2023-04-24T01:22:19;48.50;38.50;33.00
65383;PMS5003;51986;52.788;41.368;2023-04-24T01:24:46;48.25;39.00;32.00
65383;PMS5003;51986;52.788;41.368;2023-04-24T01:27:14;46.25;37.00;30.00
65383;PMS5003;51986;52.788;41.368;2023-04-24T01:29:44;46.50;37.00;31.00
65383;PMS5003;51986;52.788;41.368;2023-04-24T01:32:11;47.00;38.00;31.50
65383;PMS5003;51986;52.788;41.368;2023-04-24T01:34:39;47.50;38.00;31.50
65383;PMS5003;51986;52.788;41.368;2023-04-24T01:37:07;48.50;38.50;32.00
65383;PMS5003;51986;52.788;41.368;2023-04-24T01:39:34;48.50;39.00;32.00
65383;PMS5003;51986;52.788;41.368;2023-04-24T01:42:01;49.00;39.00;31.25
65383;PMS5003;51986;52.788;41.368;2023-04-24T01:44:28;47.00;37.00;30.00
65383;PMS5003;51986;52.788;41.368;2023-04-24T01:46:55;45.00;36.00;28.00
65383;PMS5003;51986;52.788;41.368;2023-04-24T01:49:22;45.25;36.00;28.25
65383;PMS5003;51986;52.788;41.368;2023-04-24T01:51:49;48.00;37.50;31.00
65383;PMS5003;51986;52.788;41.368;2023-04-24T01:54:16;48.25;38.50;31.00
65383;PMS5003;51986;52.788;41.368;2023-04-24T01:56:43;48.00;38.00;31.00
65383;PMS5003;51986;52.788;41.368;2023-04-24T01:59:12;48.00;37.75;30.75
65383;PMS5003;51986;52.788;41.368;2023-04-24T02:01:39;47.00;37.00;32.00
65383;PMS5003;51986;52.788;41.368;2023-04-24T02:04:06;44.50;36.00;29.00
65383;PMS5003;51986;52.788;41.368;2023-04-24T02:06:34;44.75;36.00;29.50
65383;PMS5003;51986;52.788;41.368;2023-04-24T02:09:02;45.00;36.00;29.75
65383;PMS5003;51986;52.788;41.368;2023-04-24T02:11:29;45.00;35.25;30.00
65383;PMS5003;51986;52.788;41.368;2023-04-24T02:13:56;44.25;36.00;28.00
65383;PMS5003;51986;52.788;41.368;2023-04-24T02:16:24;44.25;34.50;28.00
65383;PMS5003;51986;52.788;41.368;2023-04-24T02:18:51;45.00;36.00;28.75
65383;PMS5003;51986;52.788;41.368;2023-04-24T02:21:18;45.50;35.75;30.00
65383;PMS5003;51986;52.788;41.368;2023-04-24T02:23:45;45.00;35.50;30.00
65383;PMS5003;51986;52.788;41.368;2023-04-24T02:26:12;44.25;36.00;28.00
65383;PMS5003;51986;52.788;41.368;2023-04-24T02:28:39;43.50;35.00;27.50
65383;PMS5003;51986;52.788;41.368;2023-04-24T02:31:06;43.00;35.00;28.00
65383;PMS5003;51986;52.788;41.368;2023-04-24T02:33:33;40.00;33.00;26.00
65383;PMS5003;51986;52.788;41.368;2023-04-24T02:36:01;41.00;33.50;26.50
65383;PMS5003;51986;52.788;41.368;2023-04-24T02:38:28;43.75;34.00;27.25
65383;PMS5003;51986;52.788;41.368;2023-04-24T02:40:56;43.00;34.00;27.50
65383;PMS5003;51986;52.788;41.368;2023-04-24T02:43:25;43.00;34.75;27.50
65383;PMS5003;51986;52.788;41.368;2023-04-24T02:45:52;43.25;35.00;27.75
65383;PMS5003;51986;52.788;41.368;2023-04-24T02:48:19;42.50;34.00;27.50
65383;PMS5003;51986;52.788;41.368;2023-04-24T02:50:46;43.00;34.50;27.00
65383;PMS5003;51986;52.788;41.368;2023-04-24T02:53:13;41.00;33.50;26.50
65383;PMS5003;51986;52.788;41.368;2023-04-24T02:55:40;41.00;34.00;27.00
65383;PMS5003;51986;52.788;41.368;2023-04-24T02:58:07;44.00;36.00;29.00
65383;PMS5003;51986;52.788;41.368;2023-04-24T03:00:34;43.00;35.00;27.50
65383;PMS5003;51986;52.788;41.368;2023-04-24T03:03:01;42.00;34.00;27.00
65383;PMS5003;51986;52.788;41.368;2023-04-24T03:05:28;44.00;36.00;28.25
65383;PMS5003;51986;52.788;41.368;2023-04-24T03:07:55;44.00;36.00;28.50
65383;PMS5003;51986;52.788;41.368;2023-04-24T03:10:22;41.75;34.00;28.00
65383;PMS5003;51986;52.788;41.368;2023-04-24T03:12:49;43.25;34.00;27.00
65383;PMS5003;51986;52.788;41.368;2023-04-24T03:15:17;44.75;35.75;28.00
65383;PMS5003;51986;52.788;41.368;2023-04-24T03:17:44;43.00;35.00;28.00
65383;PMS5003;51986;52.788;41.368;2023-04-24T03:20:11;42.00;34.25;28.00
65383;PMS5003;51986;52.788;41.368;2023-04-24T03:22:39;41.00;33.50;26.50
65383;PMS5003;51986;52.788;41.368;2023-04-24T03:25:07;42.00;34.00;27.00
65383;PMS5003;51986;52.788;41.368;2023-04-24T03:27:35;42.50;34.00;27.00
65383;PMS5003;51986;52.788;41.368;2023-04-24T03:30:07;42.00;34.00;27.00
65383;PMS5003;51986;52.788;41.368;2023-04-24T03:32:48;39.00;32.00;25.00
65383;PMS5003;51986;52.788;41.368;2023-04-24T03:35:20;41.00;34.00;27.00
65383;PMS5003;51986;52.788;41.368;2023-04-24T03:37:48;41.00;34.00;27.00
65383;PMS5003;51986;52.788;41.368;2023-04-24T03:40:38;41.50;34.00;27.00
65383;PMS5003;51986;52.788;41.368;2023-04-24T03:43:18;42.00;34.00;26.00
65383;PMS5003;51986;52.788;41.368;2023-04-24T03:45:45;41.50;35.00;27.00
65383;PMS5003;51986;52.788;41.368;2023-04-24T03:48:13;41.75;34.50;28.00
65383;PMS5003;51986;52.788;41.368;2023-04-24T03:50:40;41.50;34.50;28.00
65383;PMS5003;51986;52.788;41.368;2023-04-24T03:53:10;42.50;35.75;29.25
65383;PMS5003;51986;52.788;41.368;2023-04-24T03:55:39;42.00;34.00;29.00
65383;PMS5003;51986;52.788;41.368;2023-04-24T03:58:26;43.00;36.00;28.75
65383;PMS5003;51986;52.788;41.368;2023-04-24T04:00:56;42.00;35.00;28.00
65383;PMS5003;51986;52.788;41.368;2023-04-24T04:03:39;42.50;35.00;28.50
65383;PMS5003;51986;52.788;41.368;2023-04-24T04:06:06;42.00;35.50;28.50
65383;PMS5003;51986;52.788;41.368;2023-04-24T04:08:37;43.00;36.00;29.00
65383;PMS5003;51986;52.788;41.368;2023-04-24T04:11:07;41.50;35.00;28.50
65383;PMS5003;51986;52.788;41.368;2023-04-24T04:13:37;42.00;34.50;28.00
65383;PMS5003;51986;52.788;41.368;2023-04-24T04:16:06;43.00;34.75;28.50
65383;PMS5003;51986;52.788;41.368;2023-04-24T04:18:33;42.50;34.50;28.50
65383;PMS5003;51986;52.788;41.368;2023-04-24T04:21:01;43.00;35.25;29.50
65383;PMS5003;51986;52.788;41.368;2023-04-24T04:23:28;44.00;37.00;31.00
65383;PMS5003;51986;52.788;41.368;2023-04-24T04:26:07;42.50;36.00;29.50
65383;PMS5003;51986;52.788;41.368;2023-04-24T04:28:58;43.25;36.00;29.00
65383;PMS5003;51986;52.788;41.368;2023-04-24T04:31:26;42.50;35.00;28.50
65383;PMS5003;51986;52.788;41.368;2023-04-24T04:33:59;43.75;36.00;30.50
65383;PMS5003;51986;52.788;41.368;2023-04-24T04:36:26;43.50;36.50;30.50
65383;PMS5003;51986;52.788;41.368;2023-04-24T04:38:59;43.50;35.50;30.50
65383;PMS5003;51986;52.788;41.368;2023-04-24T04:41:51;43.00;36.00;30.50
65383;PMS5003;51986;52.788;41.368;2023-04-24T04:44:26;43.50;36.25;30.00
65383;PMS5003;51986;52.788;41.368;2023-04-24T04:46:57;46.00;37.25;30.50
65383;PMS5003;51986;52.788;41.368;2023-04-24T04:49:27;46.00;37.00;32.00
65383;PMS5003;51986;52.788;41.368;2023-04-24T04:51:54;45.00;36.00;30.00
65383;PMS5003;51986;52.788;41.368;2023-04-24T04:54:24;45.50;36.75;30.25
65383;PMS5003;51986;52.788;41.368;2023-04-24T04:56:51;45.00;36.50;30.00
65383;PMS5003;51986;52.788;41.368;2023-04-24T04:59:18;44.00;36.00;29.50
65383;PMS5003;51986;52.788;41.368;2023-04-24T05:01:47;44.50;37.00;30.00
65383;PMS5003;51986;52.788;41.368;2023-04-24T05:04:15;44.00;36.00;30.00
65383;PMS5003;51986;52.788;41.368;2023-04-24T05:06:43;43.00;36.00;29.00
65383;PMS5003;51986;52.788;41.368;2023-04-24T05:09:11;43.00;36.00;28.00
65383;PMS5003;51986;52.788;41.368;2023-04-24T05:11:44;42.00;34.50;27.50
65383;PMS5003;51986;52.788;41.368;2023-04-24T05:14:11;43.00;35.25;29.00
65383;PMS5003;51986;52.788;41.368;2023-04-24T05:16:39;43.00;36.00;29.50
65383;PMS5003;51986;52.788;41.368;2023-04-24T05:19:08;42.00;34.50;28.50
65383;PMS5003;51986;52.788;41.368;2023-04-24T05:21:38;42.00;35.50;29.00
65383;PMS5003;51986;52.788;41.368;2023-04-24T05:24:06;43.00;35.50;29.50
65383;PMS5003;51986;52.788;41.368;2023-04-24T05:26:45;44.00;35.00;29.00
65383;PMS5003;51986;52.788;41.368;2023-04-24T05:29:14;41.75;35.00;28.00
65383;PMS5003;51986;52.788;41.368;2023-04-24T05:31:41;43.00;36.00;29.00
65383;PMS5003;51986;52.788;41.368;2023-04-24T05:34:09;43.00;35.00;29.00
65383;PMS5003;51986;52.788;41.368;2023-04-24T05:36:40;42.00;35.00;28.00
65383;PMS5003;51986;52.788;41.368;2023-04-24T05:39:08;42.00;35.00;28.00
65383;PMS5003;51986;52.788;41.368;2023-04-24T05:41:36;42.00;35.00;28.00
65383;PMS5003;51986;52.788;41.368;2023-04-24T05:44:03;41.00;34.00;28.00
65383;PMS5003;51986;52.788;41.368;2023-04-24T05:46:30;41.00;34.50;28.00
65383;PMS5003;51986;52.788;41.368;2023-04-24T05:48:57;41.00;34.00;28.00
65383;PMS5003;51986;52.788;41.368;2023-04-24T05:51:24;40.00;33.50;27.00
65383;PMS5003;51986;52.788;41.368;2023-04-24T05:53:51;41.50;34.50;27.00
65383;PMS5003;51986;52.788;41.368;2023-04-24T05:56:18;41.50;34.00;28.00
65383;PMS5003;51986;52.788;41.368;2023-04-24T05:58:46;41.50;35.00;29.00
65383;PMS5003;51986;52.788;41.368;2023-04-24T06:01:13;40.50;34.00;28.00
65383;PMS5003;51986;52.788;41.368;2023-04-24T06:03:42;41.00;34.50;28.00
65383;PMS5003;51986;52.788;41.368;2023-04-24T06:06:09;41.00;34.50;28.00
65383;PMS5003;51986;52.788;41.368;2023-04-24T06:08:36;40.00;34.00;27.00
65383;PMS5003;51986;52.788;41.368;2023-04-24T06:11:03;42.00;35.00;29.00
65383;PMS5003;51986;52.788;41.368;2023-04-24T06:13:31;41.50;35.00;29.00
65383;PMS5003;51986;52.788;41.368;2023-04-24T06:16:18;40.00;34.00;28.00
65383;PMS5003;51986;52.788;41.368;2023-04-24T06:18:53;41.00;35.00;28.00
65383;PMS5003;51986;52.788;41.368;2023-04-24T06:21:19;41.00;34.50;28.50
65383;PMS5003;51986;52.788;41.368;2023-04-24T06:23:46;41.50;34.00;28.25
65383;PMS5003;51986;52.788;41.368;2023-04-24T06:26:13;41.50;34.75;29.00
65383;PMS5003;51986;52.788;41.368;2023-04-24T06:28:41;42.00;34.00;27.00
65383;PMS5003;51986;52.788;41.368;2023-04-24T06:31:08;41.00;34.00;27.00
65383;PMS5003;51986;52.788;41.368;2023-04-24T06:33:34;40.00;34.00;27.00
65383;PMS5003;51986;52.788;41.368;2023-04-24T06:36:02;41.50;34.50;27.50
65383;PMS5003;51986;52.788;41.368;2023-04-24T06:38:29;41.00;35.00;28.00
65383;PMS5003;51986;52.788;41.368;2023-04-24T06:40:56;40.00;34.00;27.00
65383;PMS5003;51986;52.788;41.368;2023-04-24T06:43:23;39.50;33.00;27.00
65383;PMS5003;51986;52.788;41.368;2023-04-24T06:45:50;40.00;33.00;27.00
65383;PMS5003;51986;52.788;41.368;2023-04-24T06:48:17;39.00;33.00;26.50
65383;PMS5003;51986;52.788;41.368;2023-04-24T06:50:44;39.50;33.50;26.00
65383;PMS5003;51986;52.788;41.368;2023-04-24T06:53:10;39.50;33.50;27.50
65383;PMS5003;51986;52.788;41.368;2023-04-24T06:55:37;40.00;34.00;27.00
65383;PMS5003;51986;52.788;41.368;2023-04-24T06:58:04;40.75;34.00;27.00
65383;PMS5003;51986;52.788;41.368;2023-04-24T07:00:32;40.50;33.50;26.50
65383;PMS5003;51986;52.788;41.368;2023-04-24T07:02:58;40.00;34.00;26.25
65383;PMS5003;51986;52.788;41.368;2023-04-24T07:05:26;41.00;34.00;27.00
65383;PMS5003;51986;52.788;41.368;2023-04-24T07:07:53;40.00;34.00;27.00
65383;PMS5003;51986;52.788;41.368;2023-04-24T07:10:20;40.00;33.25;26.00
65383;PMS5003;51986;52.788;41.368;2023-04-24T07:12:47;40.00;33.50;26.00
65383;PMS5003;51986;52.788;41.368;2023-04-24T07:15:14;39.00;33.00;27.00
65383;PMS5003;51986;52.788;41.368;2023-04-24T07:17:41;39.00;33.00;27.00
65383;PMS5003;51986;52.788;41.368;2023-04-24T07:20:08;38.50;32.50;26.50
65383;PMS5003;51986;52.788;41.368;2023-04-24T07:22:39;40.50;33.00;27.00
65383;PMS5003;51986;52.788;41.368;2023-04-24T07:25:07;39.25;33.00;26.00
65383;PMS5003;51986;52.788;41.368;2023-04-24T07:27:35;39.00;33.00;27.00
65383;PMS5003;51986;52.788;41.368;2023-04-24T07:30:03;39.00;33.00;26.00
65383;PMS5003;51986;52.788;41.368;2023-04-24T07:32:32;38.50;32.50;25.50
65383;PMS5003;51986;52.788;41.368;2023-04-24T07:35:00;39.50;33.50;27.00
65383;PMS5003;51986;52.788;41.368;2023-04-24T07:37:27;40.00;34.00;28.00
65383;PMS5003;51986;52.788;41.368;2023-04-24T07:39:56;40.00;33.00;27.00
65383;PMS5003;51986;52.788;41.368;2023-04-24T07:42:23;39.00;33.00;27.00
65383;PMS5003;51986;52.788;41.368;2023-04-24T07:44:50;39.50;33.50;27.25
65383;PMS5003;51986;52.788;41.368;2023-04-24T07:47:17;40.00;34.00;27.00
65383;PMS5003;51986;52.788;41.368;2023-04-24T07:49:44;39.00;33.00;26.00
65383;PMS5003;51986;52.788;41.368;2023-04-24T07:52:11;40.00;33.00;27.00
65383;PMS5003;51986;52.788;41.368;2023-04-24T07:54:38;39.00;33.00;27.00
65383;PMS5003;51986;52.788;41.368;2023-04-24T07:57:05;40.00;33.00;26.50
65383;PMS5003;51986;52.788;41.368;2023-04-24T07:59:32;40.00;33.25;26.50
65383;PMS5003;51986;52.788;41.368;2023-04-24T08:01:59;40.00;33.00;27.00
65383;PMS5003;51986;52.788;41.368;2023-04-24T08:04:26;39.00;33.00;27.00
65383;PMS5003;51986;52.788;41.368;2023-04-24T08:06:53;39.00;33.00;26.00
65383;PMS5003;51986;52.788;41.368;2023-04-24T08:09:20;39.00;32.50;26.00
65383;PMS5003;51986;52.788;41.368;2023-04-24T08:11:47;40.00;33.00;26.75
65383;PMS5003;51986;52.788;41.368;2023-04-24T08:14:14;40.00;33.50;27.00
65383;PMS5003;51986;52.788;41.368;2023-04-24T08:16:41;39.75;33.00;27.00
65383;PMS5003;51986;52.788;41.368;2023-04-24T08:19:08;40.00;33.50;27.00
65383;PMS5003;51986;52.788;41.368;2023-04-24T08:21:35;39.00;33.00;27.00
65383;PMS5003;51986;52.788;41.368;2023-04-24T08:24:02;39.50;33.00;27.00
65383;PMS5003;51986;52.788;41.368;2023-04-24T08:26:29;40.25;33.50;26.50
65383;PMS5003;51986;52.788;41.368;2023-04-24T08:28:56;40.00;33.00;27.00
65383;PMS5003;51986;52.788;41.368;2023-04-24T08:31:23;41.00;34.00;27.00
65383;PMS5003;51986;52.788;41.368;2023-04-24T08:33:50;41.00;34.00;26.00
65383;PMS5003;51986;52.788;41.368;2023-04-24T08:36:17;41.00;33.25;27.00
65383;PMS5003;51986;52.788;41.368;2023-04-24T08:38:44;40.50;34.00;27.00
65383;PMS5003;51986;52.788;41.368;2023-04-24T08:43:57;39.50;33.50;26.00
65383;PMS5003;51986;52.788;41.368;2023-04-24T08:46:25;40.00;33.50;26.50
65383;PMS5003;51986;52.788;41.368;2023-04-24T08:48:52;40.00;33.50;27.00
65383;PMS5003;51986;52.788;41.368;2023-04-24T08:51:20;40.25;34.25;28.00
65383;PMS5003;51986;52.788;41.368;2023-04-24T08:53:47;42.00;35.00;28.00
65383;PMS5003;51986;52.788;41.368;2023-04-24T08:56:15;42.25;34.50;28.50
65383;PMS5003;51986;52.788;41.368;2023-04-24T08:58:42;43.00;35.00;28.75
65383;PMS5003;51986;52.788;41.368;2023-04-24T09:01:10;42.00;35.00;28.00
65383;PMS5003;51986;52.788;41.368;2023-04-24T09:03:38;43.00;35.50;28.25
65383;PMS5003;51986;52.788;41.368;2023-04-24T09:06:06;43.00;36.00;29.00
65383;PMS5003;51986;52.788;41.368;2023-04-24T09:08:35;41.00;35.00;27.00
65383;PMS5003;51986;52.788;41.368;2023-04-24T09:11:02;40.00;34.00;27.00
65383;PMS5003;51986;52.788;41.368;2023-04-24T09:13:30;41.25;34.50;28.25
65383;PMS5003;51986;52.788;41.368;2023-04-24T09:15:58;41.75;35.00;29.00
65383;PMS5003;51986;52.788;41.368;2023-04-24T09:18:25;42.00;34.50;29.00
65383;PMS5003;51986;52.788;41.368;2023-04-24T09:20:59;41.00;34.00;27.00
65383;PMS5003;51986;52.788;41.368;2023-04-24T09:23:31;40.00;33.50;27.25
65383;PMS5003;51986;52.788;41.368;2023-04-24T09:25:59;41.00;34.00;27.00
65383;PMS5003;51986;52.788;41.368;2023-04-24T09:28:37;40.00;33.25;27.00
65383;PMS5003;51986;52.788;41.368;2023-04-24T09:33:36;40.50;33.50;27.00
65383;PMS5003;51986;52.788;41.368;2023-04-24T09:36:03;40.50;33.75;27.25
65383;PMS5003;51986;52.788;41.368;2023-04-24T09:38:34;41.00;34.00;27.00
65383;PMS5003;51986;52.788;41.368;2023-04-24T09:41:04;40.00;33.50;27.00
65383;PMS5003;51986;52.788;41.368;2023-04-24T09:43:33;39.50;33.00;26.50
65383;PMS5003;51986;52.788;41.368;2023-04-24T09:46:03;40.00;33.25;26.75
65383;PMS5003;51986;52.788;41.368;2023-04-24T09:48:33;40.75;33.50;27.00
65383;PMS5003;51986;52.788;41.368;2023-04-24T09:51:02;42.00;34.00;28.00
65383;PMS5003;51986;52.788;41.368;2023-04-24T09:53:31;41.00;33.75;27.00
65383;PMS5003;51986;52.788;41.368;2023-04-24T09:56:02;40.75;33.00;27.00
65383;PMS5003;51986;52.788;41.368;2023-04-24T09:58:34;40.00;33.00;26.00
65383;PMS5003;51986;52.788;41.368;2023-04-24T10:01:02;40.00;33.25;27.00
65383;PMS5003;51986;52.788;41.368;2023-04-24T10:03:30;40.00;33.00;27.00
65383;PMS5003;51986;52.788;41.368;2023-04-24T10:05:58;39.50;33.50;26.50
65383;PMS5003;51986;52.788;41.368;2023-04-24T10:08:26;38.00;33.00;26.00
65383;PMS5003;51986;52.788;41.368;2023-04-24T10:11:00;39.00;33.00;26.00
65383;PMS5003;51986;52.788;41.368;2023-04-24T10:13:28;39.00;33.00;27.00
65383;PMS5003;51986;52.788;41.368;2023-04-24T10:15:56;40.00;33.00;26.00
65383;PMS5003;51986;52.788;41.368;2023-04-24T10:18:23;39.00;32.75;26.50
65383;PMS5003;51986;52.788;41.368;2023-04-24T10:20:58;39.00;33.00;27.00
65383;PMS5003;51986;52.788;41.368;2023-04-24T10:23:29;38.50;32.50;26.00
65383;PMS5003;51986;52.788;41.368;2023-04-24T10:25:57;38.00;31.50;25.50
65383;PMS5003;51986;52.788;41.368;2023-04-24T10:28:27;39.50;33.00;27.00
65383;PMS5003;51986;52.788;41.368;2023-04-24T10:30:58;39.50;33.00;28.00
65383;PMS5003;51986;52.788;41.368;2023-04-24T10:33:26;40.00;34.00;28.00
65383;PMS5003;51986;52.788;41.368;2023-04-24T10:35:54;38.00;33.00;27.00
65383;PMS5003;51986;52.788;41.368;2023-04-24T10:38:22;38.00;33.00;26.00
65383;PMS5003;51986;52.788;41.368;2023-04-24T10:40:51;38.75;32.50;26.00
65383;PMS5003;51986;52.788;41.368;2023-04-24T10:43:33;40.00;33.00;26.00
65383;PMS5003;51986;52.788;41.368;2023-04-24T10:46:03;40.00;33.00;26.00
65383;PMS5003;51986;52.788;41.368;2023-04-24T10:48:32;39.50;32.50;26.00
65383;PMS5003;51986;52.788;41.368;2023-04-24T10:50:59;38.00;32.50;26.00
65383;PMS5003;51986;52.788;41.368;2023-04-24T10:53:28;38.00;32.00;26.00
65383;PMS5003;51986;52.788;41.368;2023-04-24T10:58:40;39.00;33.00;26.50
65383;PMS5003;51986;52.788;41.368;2023-04-24T11:01:07;38.00;33.00;26.00
65383;PMS5003;51986;52.788;41.368;2023-04-24T11:03:34;38.00;33.00;26.00
65383;PMS5003;51986;52.788;41.368;2023-04-24T11:06:03;38.00;32.50;25.50
65383;PMS5003;51986;52.788;41.368;2023-04-24T11:08:37;38.00;33.00;26.00
65383;PMS5003;51986;52.788;41.368;2023-04-24T11:11:12;38.50;33.00;26.00
65383;PMS5003;51986;52.788;41.368;2023-04-24T11:18:51;39.50;33.50;27.00
65383;PMS5003;51986;52.788;41.368;2023-04-24T11:27:20;39.00;33.00;27.00
65383;PMS5003;51986;52.788;41.368;2023-04-24T11:29:49;39.25;32.50;26.50
65383;PMS5003;51986;52.788;41.368;2023-04-24T11:35:13;41.00;35.00;27.00
65383;PMS5003;51986;52.788;41.368;2023-04-24T11:37:42;40.00;33.50;26.00
65383;PMS5003;51986;52.788;41.368;2023-04-24T11:40:20;40.00;34.00;27.00
65383;PMS5003;51986;52.788;41.368;2023-04-24T11:42:49;40.00;33.00;27.00
65383;PMS5003;51986;52.788;41.368;2023-04-24T11:45:18;40.00;33.00;27.00
65383;PMS5003;51986;52.788;41.368;2023-04-24T11:47:49;40.00;33.67;26.00
65383;PMS5003;51986;52.788;41.368;2023-04-24T11:50:16;40.00;33.50;26.00
65383;PMS5003;51986;52.788;41.368;2023-04-24T11:52:45;40.00;33.00;27.00
65383;PMS5003;51986;52.788;41.368;2023-04-24T11:57:43;39.00;33.00;27.00
65383;PMS5003;51986;52.788;41.368;2023-04-24T12:00:18;39.00;33.00;27.00
65383;PMS5003;51986;52.788;41.368;2023-04-24T12:02:46;40.00;34.00;28.00
65383;PMS5003;51986;52.788;41.368;2023-04-24T12:05:21;39.00;33.00;27.00
65383;PMS5003;51986;52.788;41.368;2023-04-24T12:07:50;38.75;33.00;26.00
65383;PMS5003;51986;52.788;41.368;2023-04-24T12:10:21;39.00;33.00;26.00
65383;PMS5003;51986;52.788;41.368;2023-04-24T12:12:51;40.25;33.00;26.50
65383;PMS5003;51986;52.788;41.368;2023-04-24T12:15:19;40.00;33.00;26.00
65383;PMS5003;51986;52.788;41.368;2023-04-24T12:17:47;40.50;33.50;26.50
65383;PMS5003;51986;52.788;41.368;2023-04-24T12:20:17;39.00;33.00;27.00
65383;PMS5003;51986;52.788;41.368;2023-04-24T12:22:50;39.00;32.50;26.50
65383;PMS5003;51986;52.788;41.368;2023-04-24T12:25:19;39.00;33.00;26.50
65383;PMS5003;51986;52.788;41.368;2023-04-24T12:30:31;38.00;33.00;26.00
65383;PMS5003;51986;52.788;41.368;2023-04-24T12:33:00;40.00;33.00;27.00
65383;PMS5003;51986;52.788;41.368;2023-04-24T12:35:28;41.00;34.25;28.00
65383;PMS5003;51986;52.788;41.368;2023-04-24T12:38:07;42.00;35.00;27.75
65383;PMS5003;51986;52.788;41.368;2023-04-24T12:40:37;41.50;34.00;26.75
65383;PMS5003;51986;52.788;41.368;2023-04-24T12:43:14;40.00;33.25;27.00
65383;PMS5003;51986;52.788;41.368;2023-04-24T12:45:41;39.00;33.00;26.00
65383;PMS5003;51986;52.788;41.368;2023-04-24T12:48:08;39.75;33.75;27.00
65383;PMS5003;51986;52.788;41.368;2023-04-24T12:50:35;39.00;33.00;27.00
65383;PMS5003;51986;52.788;41.368;2023-04-24T12:53:02;39.50;33.50;26.50
65383;PMS5003;51986;52.788;41.368;2023-04-24T12:55:29;40.00;33.00;27.00
65383;PMS5003;51986;52.788;41.368;2023-04-24T12:57:56;40.00;33.00;26.00
65383;PMS5003;51986;52.788;41.368;2023-04-24T13:00:23;39.00;32.00;25.00
65383;PMS5003;51986;52.788;41.368;2023-04-24T13:02:50;37.00;30.50;24.75
65383;PMS5003;51986;52.788;41.368;2023-04-24T13:05:17;38.75;33.00;26.75
65383;PMS5003;51986;52.788;41.368;2023-04-24T13:07:44;39.00;33.00;27.00
65383;PMS5003;51986;52.788;41.368;2023-04-24T13:10:11;38.75;33.00;26.00
65383;PMS5003;51986;52.788;41.368;2023-04-24T13:12:38;39.00;32.25;26.00
65383;PMS5003;51986;52.788;41.368;2023-04-24T13:15:06;38.50;32.50;26.50
65383;PMS5003;51986;52.788;41.368;2023-04-24T13:17:33;39.50;33.00;27.00
65383;PMS5003;51986;52.788;41.368;2023-04-24T13:20:00;38.00;32.50;25.00
65383;PMS5003;51986;52.788;41.368;2023-04-24T13:22:27;38.00;32.00;25.00
65383;PMS5003;51986;52.788;41.368;2023-04-24T13:24:54;38.50;32.50;25.50
65383;PMS5003;51986;52.788;41.368;2023-04-24T13:27:21;39.00;33.00;26.00
65383;PMS5003;51986;52.788;41.368;2023-04-24T13:29:48;38.50;32.50;25.00
65383;PMS5003;51986;52.788;41.368;2023-04-24T13:32:15;37.00;31.00;25.00
65383;PMS5003;51986;52.788;41.368;2023-04-24T13:34:43;38.50;32.00;26.00
65383;PMS5003;51986;52.788;41.368;2023-04-24T13:37:09;39.00;32.50;26.00
65383;PMS5003;51986;52.788;41.368;2023-04-24T13:39:36;39.00;33.00;26.00
65383;PMS5003;51986;52.788;41.368;2023-04-24T13:42:03;40.50;33.00;26.50
65383;PMS5003;51986;52.788;41.368;2023-04-24T13:44:30;39.00;33.00;26.00
65383;PMS5003;51986;52.788;41.368;2023-04-24T13:46:58;38.50;32.00;25.00
65383;PMS5003;51986;52.788;41.368;2023-04-24T13:49:25;36.50;30.50;24.50
65383;PMS5003;51986;52.788;41.368;2023-04-24T13:51:53;39.00;33.00;26.00
65383;PMS5003;51986;52.788;41.368;2023-04-24T13:54:22;38.50;32.50;26.00
65383;PMS5003;51986;52.788;41.368;2023-04-24T13:56:51;38.50;32.50;25.75
65383;PMS5003;51986;52.788;41.368;2023-04-24T13:59:19;39.00;32.50;26.00
65383;PMS5003;51986;52.788;41.368;2023-04-24T14:01:47;38.50;32.00;25.00
65383;PMS5003;51986;52.788;41.368;2023-04-24T14:04:14;39.00;33.00;26.00
65383;PMS5003;51986;52.788;41.368;2023-04-24T14:06:41;38.00;32.00;25.50
65383;PMS5003;51986;52.788;41.368;2023-04-24T14:09:08;39.00;32.00;25.00